Time,TemperatureF,DewpointF,PressureIn,WindDirection,WindDirectionDegrees,WindSpeedMPH,WindSpeedGustMPH,Humidity,HourlyPrecipIn,Conditions,Clouds,dailyrainin,SoftwareType,DateUTC
2013-11-07 00:00:00,29.7,27.1,30.06,West,268,0.0,0.0,90,0.00,,SKC,0.27,VWS V14.01,2013-11-07 06:00:00,
2013-11-07 00:05:00,29.6,27.0,30.05,West,268,0.0,0.0,90,0.00,,SKC,0.00,VWS V14.01,2013-11-07 06:05:00,
2013-11-07 00:10:00,29.4,26.8,30.06,West,268,0.0,0.0,90,0.00,,SKC,0.00,VWS V14.01,2013-11-07 06:10:00,
2013-11-07 00:15:00,29.2,26.6,30.06,West,268,0.0,0.0,90,0.00,,SKC,0.00,VWS V14.01,2013-11-07 06:15:00,
2013-11-07 00:20:00,29.2,26.6,30.06,West,268,0.0,0.0,90,0.00,,SKC,0.00,VWS V14.01,2013-11-07 06:20:00,
2013-11-07 00:25:00,29.1,26.8,30.06,West,268,0.0,0.0,91,0.00,,SKC,0.00,VWS V14.01,2013-11-07 06:25:00,
2013-11-07 00:30:00,29.0,26.7,30.06,West,268,0.0,0.0,91,0.00,,SKC,0.00,VWS V14.01,2013-11-07 06:30:00,
2013-11-07 00:35:00,29.0,26.7,30.06,West,268,0.0,0.0,91,0.00,,SKC,0.00,VWS V14.01,2013-11-07 06:35:00,
2013-11-07 00:40:00,29.0,26.7,30.06,West,268,0.0,0.0,91,0.00,,SKC,0.00,VWS V14.01,2013-11-07 06:40:00,
2013-11-07 00:45:00,29.0,26.7,30.06,West,268,0.0,0.0,91,0.00,,SKC,0.00,VWS V14.01,2013-11-07 06:45:00,
2013-11-07 00:50:00,29.0,26.7,30.06,West,268,0.0,0.0,91,0.00,,SKC,0.00,VWS V14.01,2013-11-07 06:50:00,
2013-11-07 00:55:00,28.9,26.6,30.06,West,268,0.0,0.0,91,0.00,,SKC,0.00,VWS V14.01,2013-11-07 06:55:00,
2013-11-07 01:00:00,28.8,26.5,30.06,West,268,0.0,0.0,91,0.00,,SKC,0.00,VWS V14.01,2013-11-07 07:00:00,
2013-11-07 01:05:00,28.7,26.4,30.06,West,268,0.0,0.0,91,0.00,,SKC,0.00,VWS V14.01,2013-11-07 07:05:00,
2013-11-07 01:10:00,28.7,26.4,30.07,West,268,0.0,0.0,91,0.00,,SKC,0.00,VWS V14.01,2013-11-07 07:10:00,
2013-11-07 01:15:00,28.7,26.7,30.06,West,268,0.0,0.0,92,0.00,,SKC,0.00,VWS V14.01,2013-11-07 07:15:00,
2013-11-07 01:21:00,28.7,26.7,30.07,West,268,0.0,0.0,92,0.00,,SKC,0.00,VWS V14.01,2013-11-07 07:21:00,
2013-11-07 01:26:00,28.7,26.7,30.06,West,268,0.0,0.0,92,0.00,,SKC,0.00,VWS V14.01,2013-11-07 07:26:00,
2013-11-07 01:30:00,28.6,26.6,30.06,West,268,0.0,0.0,92,0.00,,SKC,0.00,VWS V14.01,2013-11-07 07:30:00,
2013-11-07 01:31:00,28.6,26.6,30.06,West,268,0.0,0.0,92,0.00,,SKC,0.00,VWS V14.01,2013-11-07 07:31:00,
2013-11-07 01:36:00,28.7,26.7,30.07,West,268,0.0,0.0,92,0.00,,SKC,0.00,VWS V14.01,2013-11-07 07:36:00,
2013-11-07 01:41:00,28.7,26.7,30.06,West,268,0.0,0.0,92,0.00,,SKC,0.00,VWS V14.01,2013-11-07 07:41:00,
2013-11-07 01:46:00,28.6,26.6,30.06,West,268,0.0,0.0,92,0.00,,SKC,0.00,VWS V14.01,2013-11-07 07:46:00,
2013-11-07 01:51:00,28.6,26.6,30.06,West,268,0.0,0.0,92,0.00,,SKC,0.00,VWS V14.01,2013-11-07 07:51:00,
2013-11-07 01:56:00,28.6,26.6,30.06,West,268,0.0,0.0,92,0.00,,SKC,0.00,VWS V14.01,2013-11-07 07:56:00,
2013-11-07 02:00:00,28.6,26.8,30.06,West,268,0.0,0.0,93,0.00,,SKC,0.00,VWS V14.01,2013-11-07 08:00:00,
2013-11-07 02:01:00,28.6,26.8,30.06,West,268,0.0,0.0,93,0.00,,SKC,0.00,VWS V14.01,2013-11-07 08:01:00,
2013-11-07 02:06:00,28.5,26.7,30.06,West,268,0.0,0.0,93,0.00,,SKC,0.00,VWS V14.01,2013-11-07 08:06:00,
2013-11-07 02:11:00,28.3,26.5,30.06,West,268,0.0,0.0,93,0.00,,SKC,0.00,VWS V14.01,2013-11-07 08:11:00,
2013-11-07 02:16:00,28.1,26.3,30.06,West,268,0.0,0.0,93,0.00,,SKC,0.00,VWS V14.01,2013-11-07 08:16:00,
2013-11-07 02:21:00,27.9,26.1,30.06,West,268,0.0,0.0,93,0.00,,SKC,0.00,VWS V14.01,2013-11-07 08:21:00,
2013-11-07 02:26:00,27.9,26.1,30.06,West,268,0.0,0.0,93,0.00,,SKC,0.00,VWS V14.01,2013-11-07 08:26:00,
2013-11-07 02:30:00,27.7,25.9,30.06,West,268,0.0,0.0,93,0.00,,SKC,0.00,VWS V14.01,2013-11-07 08:30:00,
2013-11-07 02:31:00,27.7,25.9,30.06,West,268,0.0,0.0,93,0.00,,SKC,0.00,VWS V14.01,2013-11-07 08:31:00,
2013-11-07 02:36:00,27.5,25.8,30.07,West,268,0.0,0.0,93,0.00,,SKC,0.00,VWS V14.01,2013-11-07 08:36:00,
2013-11-07 02:41:00,27.3,25.5,30.07,West,268,0.0,0.0,93,0.00,,SKC,0.00,VWS V14.01,2013-11-07 08:41:00,
2013-11-07 02:46:00,27.2,25.5,30.06,West,268,0.0,0.0,93,0.00,,SKC,0.00,VWS V14.01,2013-11-07 08:46:00,
2013-11-07 02:51:00,27.1,25.4,30.06,West,268,0.0,0.0,93,0.00,,SKC,0.00,VWS V14.01,2013-11-07 08:51:00,
2013-11-07 02:56:00,27.0,25.2,30.06,West,268,0.0,0.0,93,0.00,,SKC,0.00,VWS V14.01,2013-11-07 08:56:00,
2013-11-07 03:00:00,26.9,25.1,30.06,West,268,0.0,0.0,93,0.00,,SKC,0.00,VWS V14.01,2013-11-07 09:00:00,
2013-11-07 03:01:00,26.9,25.1,30.07,West,268,0.0,0.0,93,0.00,,SKC,0.00,VWS V14.01,2013-11-07 09:01:00,
2013-11-07 03:06:00,26.8,25.0,30.07,West,268,0.0,0.0,93,0.00,,SKC,0.00,VWS V14.01,2013-11-07 09:06:00,
2013-11-07 03:11:00,26.5,24.8,30.07,West,268,0.0,0.0,93,0.00,,SKC,0.00,VWS V14.01,2013-11-07 09:11:00,
2013-11-07 03:16:00,26.4,24.6,30.06,West,268,0.0,0.0,93,0.00,,SKC,0.00,VWS V14.01,2013-11-07 09:16:00,
2013-11-07 03:21:00,26.3,24.6,30.06,West,268,0.0,0.0,93,0.00,,SKC,0.00,VWS V14.01,2013-11-07 09:21:00,
2013-11-07 03:26:00,26.2,24.5,30.07,West,268,0.0,0.0,93,0.00,,SKC,0.00,VWS V14.01,2013-11-07 09:26:00,
2013-11-07 03:30:00,25.9,24.2,30.07,West,268,0.0,0.0,93,0.00,,SKC,0.00,VWS V14.01,2013-11-07 09:30:00,
2013-11-07 03:31:00,25.9,24.2,30.07,West,268,0.0,1.0,93,0.00,,SKC,0.00,VWS V14.01,2013-11-07 09:31:00,
2013-11-07 03:36:00,25.7,24.0,30.07,West,268,0.0,2.0,93,0.00,,SKC,0.00,VWS V14.01,2013-11-07 09:36:00,
2013-11-07 03:41:00,25.6,23.9,30.07,West,268,0.0,2.0,93,0.00,,SKC,0.00,VWS V14.01,2013-11-07 09:41:00,
2013-11-07 03:46:00,25.5,23.8,30.07,West,268,0.0,2.0,93,0.00,,SKC,0.00,VWS V14.01,2013-11-07 09:46:00,
2013-11-07 03:51:00,25.6,23.9,30.07,West,268,0.0,2.0,93,0.00,,SKC,0.00,VWS V14.01,2013-11-07 09:51:00,
2013-11-07 03:56:00,25.6,24.1,30.07,West,268,0.0,2.0,94,0.00,,SKC,0.00,VWS V14.01,2013-11-07 09:56:00,
2013-11-07 04:00:00,25.5,24.0,30.07,West,268,1.0,2.0,94,0.00,,SKC,0.00,VWS V14.01,2013-11-07 10:00:00,
2013-11-07 04:01:00,25.5,24.0,30.08,West,268,0.0,1.0,94,0.00,,SKC,0.00,VWS V14.01,2013-11-07 10:01:00,
2013-11-07 04:06:00,25.5,24.0,30.08,West,268,0.0,1.0,94,0.00,,SKC,0.00,VWS V14.01,2013-11-07 10:06:00,
2013-11-07 04:11:00,25.5,24.0,30.08,West,268,0.0,1.0,94,0.00,,SKC,0.00,VWS V14.01,2013-11-07 10:11:00,
2013-11-07 04:16:00,25.3,23.8,30.08,West,268,0.0,1.0,94,0.00,,SKC,0.00,VWS V14.01,2013-11-07 10:16:00,
2013-11-07 04:22:00,25.2,23.7,30.08,West,268,0.0,1.0,94,0.00,,SKC,0.00,VWS V14.01,2013-11-07 10:22:00,
2013-11-07 04:27:00,25.2,23.7,30.08,West,268,0.0,1.0,94,0.00,,SKC,0.00,VWS V14.01,2013-11-07 10:27:00,
2013-11-07 04:30:00,25.1,23.6,30.08,West,268,0.0,1.0,94,0.00,,SKC,0.00,VWS V14.01,2013-11-07 10:30:00,
2013-11-07 04:32:00,25.1,23.6,30.08,West,268,0.0,0.0,94,0.00,,SKC,0.00,VWS V14.01,2013-11-07 10:32:00,
2013-11-07 04:37:00,25.0,23.5,30.08,West,268,0.0,0.0,94,0.00,,SKC,0.00,VWS V14.01,2013-11-07 10:37:00,
2013-11-07 04:42:00,24.8,23.3,30.09,West,268,0.0,0.0,94,0.00,,SKC,0.00,VWS V14.01,2013-11-07 10:42:00,
2013-11-07 04:47:00,24.6,23.1,30.09,West,268,0.0,0.0,94,0.00,,SKC,0.00,VWS V14.01,2013-11-07 10:47:00,
2013-11-07 04:52:00,24.4,22.9,30.08,West,268,0.0,0.0,94,0.00,,SKC,0.00,VWS V14.01,2013-11-07 10:52:00,
2013-11-07 04:57:00,24.5,23.0,30.08,West,268,0.0,0.0,94,0.00,,SKC,0.00,VWS V14.01,2013-11-07 10:57:00,
2013-11-07 05:00:00,24.6,23.1,30.08,West,268,0.0,0.0,94,0.00,,SKC,0.00,VWS V14.01,2013-11-07 11:00:00,
2013-11-07 05:02:00,24.6,23.1,30.08,West,268,0.0,0.0,94,0.00,,SKC,0.00,VWS V14.01,2013-11-07 11:02:00,
2013-11-07 05:07:00,24.7,23.2,30.08,West,268,0.0,0.0,94,0.00,,SKC,0.00,VWS V14.01,2013-11-07 11:07:00,
2013-11-07 05:12:00,24.7,23.2,30.09,West,268,0.0,0.0,94,0.00,,SKC,0.00,VWS V14.01,2013-11-07 11:12:00,
2013-11-07 05:17:00,24.9,23.4,30.09,West,268,0.0,0.0,94,0.00,,SKC,0.00,VWS V14.01,2013-11-07 11:17:00,
2013-11-07 05:22:00,24.9,23.4,30.09,West,268,0.0,0.0,94,0.00,,SKC,0.00,VWS V14.01,2013-11-07 11:22:00,
2013-11-07 05:27:00,24.8,23.3,30.09,West,268,0.0,0.0,94,0.00,,SKC,0.00,VWS V14.01,2013-11-07 11:27:00,
2013-11-07 05:30:00,24.8,23.3,30.09,West,268,0.0,0.0,94,0.00,,SKC,0.00,VWS V14.01,2013-11-07 11:30:00,
2013-11-07 05:32:00,24.8,23.3,30.09,West,268,0.0,0.0,94,0.00,,SKC,0.00,VWS V14.01,2013-11-07 11:32:00,
2013-11-07 05:34:00,24.8,23.3,30.09,West,268,0.0,0.0,94,0.00,,SKC,0.00,VWS V14.01,2013-11-07 11:34:00,
2013-11-07 05:39:00,24.7,23.2,30.09,West,268,0.0,0.0,94,0.00,,SKC,0.00,VWS V14.01,2013-11-07 11:39:00,
2013-11-07 05:44:00,24.6,23.1,30.09,West,268,0.0,0.0,94,0.00,,SKC,0.00,VWS V14.01,2013-11-07 11:44:00,
2013-11-07 05:49:00,24.4,22.9,30.09,West,268,0.0,0.0,94,0.00,,SKC,0.00,VWS V14.01,2013-11-07 11:49:00,
2013-11-07 05:54:00,24.5,23.0,30.09,West,268,0.0,0.0,94,0.00,,SKC,0.00,VWS V14.01,2013-11-07 11:54:00,
2013-11-07 05:59:00,24.6,23.1,30.09,West,268,0.0,0.0,94,0.00,,SKC,0.00,VWS V14.01,2013-11-07 11:59:00,
2013-11-07 06:00:00,24.5,23.0,30.09,West,268,0.0,0.0,94,0.00,,SKC,0.00,VWS V14.01,2013-11-07 12:00:00,
2013-11-07 06:04:00,24.5,23.0,30.09,West,268,0.0,0.0,94,0.00,,SKC,0.00,VWS V14.01,2013-11-07 12:04:00,
2013-11-07 06:09:00,24.4,22.9,30.09,West,268,0.0,0.0,94,0.00,,SKC,0.00,VWS V14.01,2013-11-07 12:09:00,
2013-11-07 06:14:00,24.3,22.8,30.09,West,268,0.0,0.0,94,0.00,,SKC,0.00,VWS V14.01,2013-11-07 12:14:00,
2013-11-07 06:19:00,24.4,22.9,30.09,West,268,0.0,0.0,94,0.00,,SKC,0.00,VWS V14.01,2013-11-07 12:19:00,
2013-11-07 06:24:00,24.5,23.0,30.09,West,268,0.0,0.0,94,0.00,,SKC,0.00,VWS V14.01,2013-11-07 12:24:00,
2013-11-07 06:29:00,24.6,23.1,30.10,West,268,0.0,0.0,94,0.00,,SKC,0.00,VWS V14.01,2013-11-07 12:29:00,
2013-11-07 06:30:00,24.6,23.1,30.10,West,268,0.0,0.0,94,0.00,,SKC,0.00,VWS V14.01,2013-11-07 12:30:00,
2013-11-07 06:34:00,24.7,23.2,30.10,West,268,0.0,0.0,94,0.00,,SKC,0.00,VWS V14.01,2013-11-07 12:34:00,
2013-11-07 06:39:00,24.8,23.3,30.10,West,268,0.0,0.0,94,0.00,,SKC,0.00,VWS V14.01,2013-11-07 12:39:00,
2013-11-07 06:44:00,24.9,23.4,30.10,West,268,0.0,0.0,94,0.00,,SKC,0.00,VWS V14.01,2013-11-07 12:44:00,
2013-11-07 06:49:00,24.9,23.4,30.10,West,268,0.0,2.0,94,0.00,,SKC,0.00,VWS V14.01,2013-11-07 12:49:00,
2013-11-07 06:54:00,24.9,23.4,30.10,West,268,0.0,2.0,94,0.00,,SKC,0.00,VWS V14.01,2013-11-07 12:54:00,
2013-11-07 06:59:00,24.8,23.3,30.10,West,268,0.0,2.0,94,0.00,,SKC,0.00,VWS V14.01,2013-11-07 12:59:00,
2013-11-07 07:00:00,24.8,23.3,30.10,West,268,0.0,2.0,94,0.00,,SKC,0.00,VWS V14.01,2013-11-07 13:00:00,
2013-11-07 07:04:00,24.8,23.3,30.11,West,268,0.0,0.0,94,0.00,,SKC,0.00,VWS V14.01,2013-11-07 13:04:00,
2013-11-07 07:09:00,24.9,23.4,30.11,West,268,0.0,0.0,94,0.00,,SKC,0.00,VWS V14.01,2013-11-07 13:09:00,
2013-11-07 07:14:00,25.1,23.6,30.11,West,268,0.0,0.0,94,0.00,,SKC,0.00,VWS V14.01,2013-11-07 13:14:00,
2013-11-07 07:20:00,25.2,23.7,30.11,West,268,0.0,0.0,94,0.00,,SKC,0.00,VWS V14.01,2013-11-07 13:20:00,
2013-11-07 07:25:00,25.5,24.0,30.11,West,268,0.0,0.0,94,0.00,,SKC,0.00,VWS V14.01,2013-11-07 13:25:00,
2013-11-07 07:30:00,25.7,24.2,30.11,West,268,0.0,0.0,94,0.00,,SKC,0.00,VWS V14.01,2013-11-07 13:30:00,
2013-11-07 07:35:00,25.9,24.4,30.11,West,268,0.0,0.0,94,0.00,,SKC,0.00,VWS V14.01,2013-11-07 13:35:00,
2013-11-07 07:40:00,26.1,24.6,30.11,West,268,0.0,0.0,94,0.00,,SKC,0.00,VWS V14.01,2013-11-07 13:40:00,
2013-11-07 07:45:00,26.2,24.7,30.11,West,268,0.0,0.0,94,0.00,,SKC,0.00,VWS V14.01,2013-11-07 13:45:00,
2013-11-07 07:50:00,26.4,24.9,30.11,West,268,0.0,0.0,94,0.00,,SKC,0.00,VWS V14.01,2013-11-07 13:50:00,
2013-11-07 07:55:00,26.7,25.2,30.11,West,268,0.0,0.0,94,0.00,,SKC,0.00,VWS V14.01,2013-11-07 13:55:00,
2013-11-07 08:00:00,27.0,25.5,30.11,West,268,0.0,0.0,94,0.00,,SKC,0.00,VWS V14.01,2013-11-07 14:00:00,
2013-11-07 08:05:00,27.2,25.7,30.11,West,268,0.0,0.0,94,0.00,,SKC,0.00,VWS V14.01,2013-11-07 14:05:00,
2013-11-07 08:10:00,27.4,25.9,30.11,West,268,0.0,0.0,94,0.00,,SKC,0.00,VWS V14.01,2013-11-07 14:10:00,
2013-11-07 08:15:00,27.6,25.8,30.12,West,268,0.0,0.0,93,0.00,,SKC,0.00,VWS V14.01,2013-11-07 14:15:00,
2013-11-07 08:20:00,27.7,25.9,30.12,West,268,0.0,0.0,93,0.00,,SKC,0.00,VWS V14.01,2013-11-07 14:20:00,
2013-11-07 08:25:00,27.9,26.1,30.12,West,268,0.0,0.0,93,0.00,,SKC,0.00,VWS V14.01,2013-11-07 14:25:00,
2013-11-07 08:30:00,28.0,26.2,30.11,West,268,0.0,0.0,93,0.00,,SKC,0.00,VWS V14.01,2013-11-07 14:30:00,
2013-11-07 08:35:00,28.3,26.5,30.11,West,268,0.0,0.0,93,0.00,,SKC,0.00,VWS V14.01,2013-11-07 14:35:00,
2013-11-07 08:40:00,28.7,26.9,30.11,West,268,0.0,0.0,93,0.00,,SKC,0.00,VWS V14.01,2013-11-07 14:40:00,
2013-11-07 08:45:00,29.1,27.3,30.11,West,268,0.0,0.0,93,0.00,,SKC,0.00,VWS V14.01,2013-11-07 14:45:00,
2013-11-07 08:50:00,29.6,27.8,30.11,West,268,0.0,0.0,93,0.00,,SKC,0.00,VWS V14.01,2013-11-07 14:50:00,
2013-11-07 08:55:00,29.9,27.9,30.12,West,268,0.0,0.0,92,0.00,,SKC,0.00,VWS V14.01,2013-11-07 14:55:00,
2013-11-07 09:00:00,30.1,27.8,30.12,West,268,0.0,0.0,91,0.00,,SKC,0.00,VWS V14.01,2013-11-07 15:00:00,
2013-11-07 09:05:00,30.1,27.5,30.12,West,268,0.0,0.0,90,0.00,,SKC,0.00,VWS V14.01,2013-11-07 15:05:00,
2013-11-07 09:10:00,30.2,27.4,30.12,West,268,0.0,1.0,89,0.00,,SKC,0.00,VWS V14.01,2013-11-07 15:10:00,
2013-11-07 09:15:00,30.4,27.5,30.12,West,268,0.0,1.0,89,0.00,,SKC,0.00,VWS V14.01,2013-11-07 15:15:00,
2013-11-07 09:21:00,30.6,27.5,30.12,West,268,0.0,1.0,88,0.00,,SKC,0.00,VWS V14.01,2013-11-07 15:21:00,
2013-11-07 09:26:00,30.8,27.7,30.12,West,268,0.0,2.0,88,0.00,,SKC,0.00,VWS V14.01,2013-11-07 15:26:00,
2013-11-07 09:30:00,31.0,27.6,30.12,West,268,0.0,2.0,87,0.00,,SKC,0.00,VWS V14.01,2013-11-07 15:30:00,
2013-11-07 09:31:00,30.9,27.5,30.12,West,268,0.0,2.0,87,0.00,,SKC,0.00,VWS V14.01,2013-11-07 15:31:00,
2013-11-07 09:36:00,31.2,27.8,30.12,West,268,0.0,0.0,87,0.00,,SKC,0.00,VWS V14.01,2013-11-07 15:36:00,
2013-11-07 09:41:00,31.4,28.0,30.12,West,268,0.0,0.0,87,0.00,,SKC,0.00,VWS V14.01,2013-11-07 15:41:00,
2013-11-07 09:46:00,31.5,27.8,30.12,West,268,0.0,0.0,86,0.00,,SKC,0.00,VWS V14.01,2013-11-07 15:46:00,
2013-11-07 09:51:00,31.6,27.9,30.12,West,268,0.0,0.0,86,0.00,,SKC,0.00,VWS V14.01,2013-11-07 15:51:00,
2013-11-07 09:56:00,31.8,27.8,30.12,West,268,0.0,0.0,85,0.00,,SKC,0.00,VWS V14.01,2013-11-07 15:56:00,
2013-11-07 10:00:00,31.7,27.1,30.12,West,268,0.0,0.0,83,0.00,,SKC,0.00,VWS V14.01,2013-11-07 16:00:00,
2013-11-07 10:01:00,31.7,27.1,30.12,West,268,0.0,0.0,83,0.00,,SKC,0.00,VWS V14.01,2013-11-07 16:01:00,
2013-11-07 10:06:00,31.7,27.1,30.12,West,268,0.0,0.0,83,0.00,,SKC,0.00,VWS V14.01,2013-11-07 16:06:00,
2013-11-07 10:11:00,31.9,27.6,30.12,West,268,0.0,0.0,84,0.00,,SKC,0.00,VWS V14.01,2013-11-07 16:11:00,
2013-11-07 10:16:00,32.0,27.4,30.12,West,268,0.0,0.0,83,0.00,,SKC,0.00,VWS V14.01,2013-11-07 16:16:00,
2013-11-07 10:21:00,32.2,27.6,30.12,West,268,0.0,0.0,83,0.00,,SKC,0.00,VWS V14.01,2013-11-07 16:21:00,
2013-11-07 10:26:00,32.5,27.9,30.12,West,268,0.0,2.0,83,0.00,,SKC,0.00,VWS V14.01,2013-11-07 16:26:00,
2013-11-07 10:30:00,32.5,27.3,30.12,West,268,0.0,2.0,81,0.00,,SKC,0.00,VWS V14.01,2013-11-07 16:30:00,
2013-11-07 10:31:00,32.5,27.3,30.12,West,268,0.0,2.0,81,0.00,,SKC,0.00,VWS V14.01,2013-11-07 16:31:00,
2013-11-07 10:36:00,32.5,27.0,30.12,West,268,0.0,0.0,80,0.00,,SKC,0.00,VWS V14.01,2013-11-07 16:36:00,
2013-11-07 10:41:00,32.5,27.0,30.13,West,268,0.0,0.0,80,0.00,,SKC,0.00,VWS V14.01,2013-11-07 16:41:00,
2013-11-07 10:46:00,32.5,27.0,30.13,West,268,0.0,0.0,80,0.00,,SKC,0.00,VWS V14.01,2013-11-07 16:46:00,
2013-11-07 10:51:00,32.6,27.4,30.13,West,268,0.0,1.0,81,0.00,,SKC,0.00,VWS V14.01,2013-11-07 16:51:00,
2013-11-07 10:56:00,32.8,27.6,30.13,West,268,0.0,1.0,81,0.00,,SKC,0.00,VWS V14.01,2013-11-07 16:56:00,
2013-11-07 11:00:00,33.1,27.3,30.13,West,268,0.0,1.0,79,0.00,,SKC,0.00,VWS V14.01,2013-11-07 17:00:00,
2013-11-07 11:01:00,33.1,27.3,30.13,West,268,0.0,0.0,79,0.00,,SKC,0.00,VWS V14.01,2013-11-07 17:01:00,
2013-11-07 11:06:00,33.4,27.3,30.13,West,268,0.0,1.0,78,0.00,,SKC,0.00,VWS V14.01,2013-11-07 17:06:00,
2013-11-07 11:11:00,33.6,27.5,30.13,West,268,0.0,4.0,78,0.00,,SKC,0.00,VWS V14.01,2013-11-07 17:11:00,
2013-11-07 11:16:00,33.9,27.8,30.13,West,268,0.0,4.0,78,0.00,,SKC,0.00,VWS V14.01,2013-11-07 17:16:00,
2013-11-07 11:21:00,34.4,28.0,30.12,West,268,0.0,4.0,77,0.00,,SKC,0.00,VWS V14.01,2013-11-07 17:21:00,
2013-11-07 11:26:00,35.0,28.5,30.12,West,268,0.0,5.0,77,0.00,,SKC,0.00,VWS V14.01,2013-11-07 17:26:00,
2013-11-07 11:30:00,35.2,28.1,30.12,West,268,0.0,5.0,75,0.00,,SKC,0.00,VWS V14.01,2013-11-07 17:30:00,
2013-11-07 11:31:00,35.2,27.8,30.12,West,268,0.0,0.0,74,0.00,,SKC,0.00,VWS V14.01,2013-11-07 17:31:00,
2013-11-07 11:36:00,35.0,27.9,30.12,West,268,0.0,1.0,75,0.00,,SKC,0.00,VWS V14.01,2013-11-07 17:36:00,
2013-11-07 11:41:00,34.8,27.0,30.12,West,268,2.0,6.0,73,0.00,,SKC,0.00,VWS V14.01,2013-11-07 17:41:00,
2013-11-07 11:46:00,35.1,28.0,30.12,West,268,0.0,6.0,75,0.00,,SKC,0.00,VWS V14.01,2013-11-07 17:46:00,
2013-11-07 11:51:00,35.5,28.0,30.12,West,268,0.0,6.0,74,0.00,,SKC,0.00,VWS V14.01,2013-11-07 17:51:00,
2013-11-07 11:56:00,35.7,27.9,30.11,West,268,2.0,6.0,73,0.00,,SKC,0.00,VWS V14.01,2013-11-07 17:56:00,
2013-11-07 12:00:00,36.1,28.0,30.11,West,268,2.0,6.0,72,0.00,,SKC,0.00,VWS V14.01,2013-11-07 18:00:00,
2013-11-07 12:01:00,36.1,28.0,30.11,West,268,2.0,6.0,72,0.00,,SKC,0.00,VWS V14.01,2013-11-07 18:01:00,
2013-11-07 12:07:00,36.8,29.0,30.11,West,268,5.0,5.0,73,0.00,,SKC,0.00,VWS V14.01,2013-11-07 18:07:00,
2013-11-07 12:12:00,37.1,28.6,30.11,West,267,0.0,5.0,71,0.00,,SKC,0.00,VWS V14.01,2013-11-07 18:12:00,
2013-11-07 12:17:00,37.7,29.2,30.10,WSW,258,2.0,8.0,71,0.00,,SKC,0.00,VWS V14.01,2013-11-07 18:17:00,
2013-11-07 12:22:00,37.8,28.2,30.10,WSW,258,0.0,8.0,68,0.00,,SKC,0.00,VWS V14.01,2013-11-07 18:22:00,
2013-11-07 12:27:00,37.9,29.0,30.10,WSW,258,0.0,8.0,70,0.00,,SKC,0.00,VWS V14.01,2013-11-07 18:27:00,
2013-11-07 12:30:00,38.4,28.8,30.09,WSW,258,0.0,8.0,68,0.00,,SKC,0.00,VWS V14.01,2013-11-07 18:30:00,
2013-11-07 12:32:00,38.5,29.2,30.10,WSW,258,0.0,0.0,69,0.00,,SKC,0.00,VWS V14.01,2013-11-07 18:32:00,
2013-11-07 12:37:00,39.4,30.1,30.09,West,263,1.0,7.0,69,0.00,,SKC,0.00,VWS V14.01,2013-11-07 18:37:00,
2013-11-07 12:42:00,40.1,29.3,30.09,West,263,4.0,7.0,65,0.00,,SKC,0.00,VWS V14.01,2013-11-07 18:42:00,
2013-11-07 12:47:00,39.8,29.0,30.09,West,263,2.0,7.0,65,0.00,,SKC,0.00,VWS V14.01,2013-11-07 18:47:00,
2013-11-07 12:52:00,39.5,28.4,30.09,West,263,0.0,7.0,64,0.00,,SKC,0.00,VWS V14.01,2013-11-07 18:52:00,
2013-11-07 12:57:00,38.7,28.3,30.09,West,263,0.0,7.0,66,0.00,,SKC,0.00,VWS V14.01,2013-11-07 18:57:00,
2013-11-07 13:00:00,38.4,28.8,30.09,West,263,0.0,7.0,68,0.00,,SKC,0.00,VWS V14.01,2013-11-07 19:00:00,
2013-11-07 13:02:00,38.3,28.7,30.09,West,263,0.0,0.0,68,0.00,,SKC,0.00,VWS V14.01,2013-11-07 19:02:00,
2013-11-07 13:07:00,38.7,29.1,30.09,West,267,0.0,7.0,68,0.00,,SKC,0.00,VWS V14.01,2013-11-07 19:07:00,
2013-11-07 13:12:00,38.6,27.9,30.09,West,267,0.0,7.0,65,0.00,,SKC,0.00,VWS V14.01,2013-11-07 19:12:00,
2013-11-07 13:17:00,38.3,28.7,30.09,West,267,0.0,7.0,68,0.00,,SKC,0.00,VWS V14.01,2013-11-07 19:17:00,
2013-11-07 13:22:00,37.9,27.6,30.09,West,268,5.0,7.0,66,0.00,,SKC,0.00,VWS V14.01,2013-11-07 19:22:00,
2013-11-07 13:27:00,37.6,27.3,30.09,West,268,0.0,7.0,66,0.00,,SKC,0.00,VWS V14.01,2013-11-07 19:27:00,
2013-11-07 13:30:00,37.8,27.8,30.09,West,268,0.0,7.0,67,0.00,,SKC,0.00,VWS V14.01,2013-11-07 19:30:00,
2013-11-07 13:32:00,37.9,28.3,30.09,West,268,0.0,0.0,68,0.00,,SKC,0.00,VWS V14.01,2013-11-07 19:32:00,
2013-11-07 13:37:00,38.2,28.2,30.09,West,268,4.0,6.0,67,0.00,,SKC,0.00,VWS V14.01,2013-11-07 19:37:00,
2013-11-07 13:42:00,37.9,27.6,30.09,West,269,4.0,6.0,66,0.00,,SKC,0.00,VWS V14.01,2013-11-07 19:42:00,
2013-11-07 13:47:00,37.6,27.6,30.09,West,269,3.0,6.0,67,0.00,,SKC,0.00,VWS V14.01,2013-11-07 19:47:00,
2013-11-07 13:52:00,37.4,27.5,30.09,West,269,0.0,6.0,67,0.00,,SKC,0.00,VWS V14.01,2013-11-07 19:52:00,
2013-11-07 13:57:00,37.5,27.9,30.08,West,269,0.0,6.0,68,0.00,,SKC,0.00,VWS V14.01,2013-11-07 19:57:00,
2013-11-07 14:00:00,37.8,28.9,30.08,West,269,0.0,6.0,70,0.00,,SKC,0.00,VWS V14.01,2013-11-07 20:00:00,
2013-11-07 14:02:00,38.0,28.8,30.08,West,269,0.0,0.0,69,0.00,,SKC,0.00,VWS V14.01,2013-11-07 20:02:00,
2013-11-07 14:07:00,38.8,29.2,30.08,West,269,0.0,4.0,68,0.00,,SKC,0.00,VWS V14.01,2013-11-07 20:07:00,
2013-11-07 14:12:00,39.5,28.7,30.08,West,273,4.0,6.0,65,0.00,,SKC,0.00,VWS V14.01,2013-11-07 20:12:00,
2013-11-07 14:17:00,39.2,28.1,30.08,West,273,6.0,6.0,64,0.00,,SKC,0.00,VWS V14.01,2013-11-07 20:17:00,
2013-11-07 14:23:00,38.6,27.9,30.08,West,271,2.0,6.0,65,0.00,,SKC,0.00,VWS V14.01,2013-11-07 20:23:00,
2013-11-07 14:28:00,38.3,27.2,30.08,West,271,2.0,6.0,64,0.00,,SKC,0.00,VWS V14.01,2013-11-07 20:28:00,
2013-11-07 14:30:00,38.2,27.9,30.08,West,271,0.0,6.0,66,0.00,,SKC,0.00,VWS V14.01,2013-11-07 20:30:00,
2013-11-07 14:33:00,38.1,28.1,30.08,West,271,0.0,0.0,67,0.00,,SKC,0.00,VWS V14.01,2013-11-07 20:33:00,
2013-11-07 14:38:00,38.1,27.8,30.08,West,270,0.0,6.0,66,0.00,,SKC,0.00,VWS V14.01,2013-11-07 20:38:00,
2013-11-07 14:43:00,38.0,27.7,30.08,West,270,0.0,6.0,66,0.00,,SKC,0.00,VWS V14.01,2013-11-07 20:43:00,
2013-11-07 14:48:00,37.9,27.6,30.08,West,268,4.0,6.0,66,0.00,,SKC,0.00,VWS V14.01,2013-11-07 20:48:00,
2013-11-07 14:53:00,38.0,28.0,30.08,West,268,0.0,6.0,67,0.00,,SKC,0.00,VWS V14.01,2013-11-07 20:53:00,
2013-11-07 14:58:00,38.0,27.3,30.08,West,268,3.0,6.0,65,0.00,,SKC,0.00,VWS V14.01,2013-11-07 20:58:00,
2013-11-07 15:00:00,38.0,27.7,30.08,West,268,0.0,6.0,66,0.00,,SKC,0.00,VWS V14.01,2013-11-07 21:00:00,
2013-11-07 15:03:00,38.0,28.0,30.08,West,268,2.0,2.0,67,0.00,,SKC,0.00,VWS V14.01,2013-11-07 21:03:00,
2013-11-07 15:08:00,38.1,27.8,30.08,West,268,0.0,6.0,66,0.00,,SKC,0.00,VWS V14.01,2013-11-07 21:08:00,
2013-11-07 15:13:00,38.1,27.8,30.08,West,268,0.0,6.0,66,0.00,,SKC,0.00,VWS V14.01,2013-11-07 21:13:00,
2013-11-07 15:18:00,38.0,27.7,30.08,West,272,4.0,6.0,66,0.00,,SKC,0.00,VWS V14.01,2013-11-07 21:18:00,
2013-11-07 15:23:00,37.7,27.0,30.08,West,269,2.0,7.0,65,0.00,,SKC,0.00,VWS V14.01,2013-11-07 21:23:00,
2013-11-07 15:28:00,37.4,27.5,30.08,West,269,0.0,7.0,67,0.00,,SKC,0.00,VWS V14.01,2013-11-07 21:28:00,
2013-11-07 15:30:00,37.3,27.4,30.08,West,266,2.0,7.0,67,0.00,,SKC,0.00,VWS V14.01,2013-11-07 21:30:00,
2013-11-07 15:33:00,37.3,27.7,30.08,West,266,0.0,2.0,68,0.00,,SKC,0.00,VWS V14.01,2013-11-07 21:33:00,
2013-11-07 15:38:00,37.1,27.5,30.08,West,267,0.0,5.0,68,0.00,,SKC,0.00,VWS V14.01,2013-11-07 21:38:00,
2013-11-07 15:43:00,37.1,27.5,30.08,West,267,0.0,5.0,68,0.00,,SKC,0.00,VWS V14.01,2013-11-07 21:43:00,
2013-11-07 15:48:00,37.1,27.9,30.08,West,267,0.0,5.0,69,0.00,,SKC,0.00,VWS V14.01,2013-11-07 21:48:00,
2013-11-07 15:53:00,37.1,27.5,30.08,West,266,0.0,6.0,68,0.00,,SKC,0.00,VWS V14.01,2013-11-07 21:53:00,
2013-11-07 15:58:00,37.0,27.8,30.08,West,265,1.0,8.0,69,0.00,,SKC,0.00,VWS V14.01,2013-11-07 21:58:00,
2013-11-07 16:00:00,36.9,27.3,30.08,WSW,255,4.0,8.0,68,0.00,,SKC,0.00,VWS V14.01,2013-11-07 22:00:00,
2013-11-07 16:03:00,36.9,27.7,30.08,WSW,255,0.0,4.0,69,0.00,,SKC,0.00,VWS V14.01,2013-11-07 22:03:00,
2013-11-07 16:08:00,36.6,27.0,30.09,WSW,253,1.0,6.0,68,0.00,,SKC,0.00,VWS V14.01,2013-11-07 22:08:00,
2013-11-07 16:13:00,36.5,27.7,30.08,WSW,253,0.0,6.0,70,0.00,,SKC,0.00,VWS V14.01,2013-11-07 22:13:00,
2013-11-07 16:18:00,36.4,27.2,30.08,WSW,253,0.0,6.0,69,0.00,,SKC,0.00,VWS V14.01,2013-11-07 22:18:00,
2013-11-07 16:23:00,36.3,27.5,30.08,WSW,253,0.0,6.0,70,0.00,,SKC,0.00,VWS V14.01,2013-11-07 22:23:00,
2013-11-07 16:28:00,36.2,27.7,30.08,WSW,253,0.0,6.0,71,0.00,,SKC,0.00,VWS V14.01,2013-11-07 22:28:00,
2013-11-07 16:30:00,36.1,27.6,30.09,WSW,253,0.0,6.0,71,0.00,,SKC,0.00,VWS V14.01,2013-11-07 22:30:00,
2013-11-07 16:33:00,36.1,27.6,30.09,WSW,253,0.0,0.0,71,0.00,,SKC,0.00,VWS V14.01,2013-11-07 22:33:00,
2013-11-07 16:38:00,35.9,27.8,30.09,WSW,253,0.0,0.0,72,0.00,,SKC,0.00,VWS V14.01,2013-11-07 22:38:00,
2013-11-07 16:43:00,35.8,27.7,30.09,WSW,253,0.0,4.0,72,0.00,,SKC,0.00,VWS V14.01,2013-11-07 22:43:00,
2013-11-07 16:48:00,35.6,27.5,30.09,WSW,253,0.0,4.0,72,0.00,,SKC,0.00,VWS V14.01,2013-11-07 22:48:00,
2013-11-07 16:53:00,35.3,27.5,30.09,WSW,253,0.0,4.0,73,0.00,,SKC,0.00,VWS V14.01,2013-11-07 22:53:00,
2013-11-07 16:59:00,35.1,27.0,30.09,WSW,253,0.0,4.0,72,0.00,,SKC,0.00,VWS V14.01,2013-11-07 22:59:00,
2013-11-07 17:00:00,34.9,27.1,30.09,WSW,253,0.0,4.0,73,0.00,,SKC,0.00,VWS V14.01,2013-11-07 23:00:00,
2013-11-07 17:04:00,34.7,27.0,30.09,WSW,253,0.0,0.0,73,0.00,,SKC,0.00,VWS V14.01,2013-11-07 23:04:00,
2013-11-07 17:09:00,34.4,27.0,30.09,WSW,253,0.0,0.0,74,0.00,,SKC,0.00,VWS V14.01,2013-11-07 23:09:00,
2013-11-07 17:14:00,34.3,26.9,30.09,WSW,253,0.0,5.0,74,0.00,,SKC,0.00,VWS V14.01,2013-11-07 23:14:00,
2013-11-07 17:19:00,34.2,27.4,30.09,WSW,253,0.0,5.0,76,0.00,,SKC,0.00,VWS V14.01,2013-11-07 23:19:00,
2013-11-07 17:24:00,34.3,27.2,30.09,WSW,253,0.0,5.0,75,0.00,,SKC,0.00,VWS V14.01,2013-11-07 23:24:00,
2013-11-07 17:29:00,34.2,27.1,30.09,WSW,253,0.0,5.0,75,0.00,,SKC,0.00,VWS V14.01,2013-11-07 23:29:00,
2013-11-07 17:30:00,34.2,27.4,30.09,WSW,253,2.0,5.0,76,0.00,,SKC,0.00,VWS V14.01,2013-11-07 23:30:00,
2013-11-07 17:34:00,34.1,27.0,30.09,WSW,253,0.0,2.0,75,0.00,,SKC,0.00,VWS V14.01,2013-11-07 23:34:00,
2013-11-07 17:39:00,34.1,27.0,30.09,WSW,253,0.0,2.0,75,0.00,,SKC,0.00,VWS V14.01,2013-11-07 23:39:00,
2013-11-07 17:44:00,33.9,27.1,30.10,WSW,253,0.0,2.0,76,0.00,,SKC,0.00,VWS V14.01,2013-11-07 23:44:00,
2013-11-07 17:49:00,33.8,27.4,30.10,WSW,253,0.0,2.0,77,0.00,,SKC,0.00,VWS V14.01,2013-11-07 23:49:00,
2013-11-07 17:54:00,33.7,27.3,30.10,WSW,253,0.0,2.0,77,0.00,,SKC,0.00,VWS V14.01,2013-11-07 23:54:00,
2013-11-07 17:59:00,33.6,27.5,30.10,WSW,253,0.0,4.0,78,0.00,,SKC,0.00,VWS V14.01,2013-11-07 23:59:00,
2013-11-07 18:00:00,33.6,27.5,30.10,WSW,253,0.0,4.0,78,0.00,,SKC,0.00,VWS V14.01,2013-11-08 00:00:00,
2013-11-07 18:04:00,33.5,27.7,30.10,WSW,253,0.0,0.0,79,0.00,,SKC,0.00,VWS V14.01,2013-11-08 00:04:00,
2013-11-07 18:09:00,33.4,27.6,30.10,WSW,253,0.0,0.0,79,0.00,,SKC,0.00,VWS V14.01,2013-11-08 00:09:00,
2013-11-07 18:14:00,33.2,27.4,30.10,WSW,253,0.0,0.0,79,0.00,,SKC,0.00,VWS V14.01,2013-11-08 00:14:00,
2013-11-07 18:19:00,33.1,27.6,30.10,WSW,253,0.0,0.0,80,0.00,,SKC,0.00,VWS V14.01,2013-11-08 00:19:00,
2013-11-07 18:24:00,32.9,27.1,30.10,WSW,253,0.0,0.0,79,0.00,,SKC,0.00,VWS V14.01,2013-11-08 00:24:00,
2013-11-07 18:29:00,32.7,26.9,30.10,WSW,253,0.0,0.0,79,0.00,,SKC,0.00,VWS V14.01,2013-11-08 00:29:00,
2013-11-07 18:30:00,32.6,26.8,30.10,WSW,253,0.0,0.0,79,0.00,,SKC,0.00,VWS V14.01,2013-11-08 00:30:00,
2013-11-07 18:34:00,32.5,26.7,30.10,WSW,253,0.0,0.0,79,0.00,,SKC,0.00,VWS V14.01,2013-11-08 00:34:00,
2013-11-07 18:39:00,32.2,26.4,30.11,WSW,253,0.0,0.0,79,0.00,,SKC,0.00,VWS V14.01,2013-11-08 00:39:00,
2013-11-07 18:44:00,32.1,26.6,30.11,WSW,253,0.0,1.0,80,0.00,,SKC,0.00,VWS V14.01,2013-11-08 00:44:00,
2013-11-07 18:49:00,31.9,26.4,30.11,WSW,253,0.0,1.0,80,0.00,,SKC,0.00,VWS V14.01,2013-11-08 00:49:00,
2013-11-07 18:54:00,31.9,26.4,30.11,WSW,253,0.0,1.0,80,0.00,,SKC,0.00,VWS V14.01,2013-11-08 00:54:00,
2013-11-07 18:59:00,31.9,26.4,30.11,WSW,253,0.0,1.0,80,0.00,,SKC,0.00,VWS V14.01,2013-11-08 00:59:00,
2013-11-07 19:00:00,31.9,26.4,30.10,WSW,253,0.0,1.0,80,0.00,,SKC,0.00,VWS V14.01,2013-11-08 01:00:00,
2013-11-07 19:04:00,31.9,26.4,30.10,WSW,253,0.0,1.0,80,0.00,,SKC,0.00,VWS V14.01,2013-11-08 01:04:00,
2013-11-07 19:09:00,31.9,26.1,30.10,WSW,253,0.0,4.0,79,0.00,,SKC,0.00,VWS V14.01,2013-11-08 01:09:00,
2013-11-07 19:14:00,31.9,26.7,30.10,WSW,253,0.0,4.0,81,0.00,,SKC,0.00,VWS V14.01,2013-11-08 01:14:00,
2013-11-07 19:19:00,31.7,25.9,30.10,WSW,253,0.0,4.0,79,0.00,,SKC,0.00,VWS V14.01,2013-11-08 01:19:00,
2013-11-07 19:25:00,31.5,25.8,30.10,WSW,253,0.0,4.0,79,0.00,,SKC,0.00,VWS V14.01,2013-11-08 01:25:00,
2013-11-07 19:30:00,31.3,25.6,30.10,WSW,253,0.0,4.0,79,0.00,,SKC,0.00,VWS V14.01,2013-11-08 01:30:00,
2013-11-07 19:35:00,31.0,25.3,30.10,WSW,253,0.0,0.0,79,0.00,,SKC,0.00,VWS V14.01,2013-11-08 01:35:00,
2013-11-07 19:40:00,30.8,25.4,30.11,WSW,253,0.0,0.0,80,0.00,,SKC,0.00,VWS V14.01,2013-11-08 01:40:00,
2013-11-07 19:45:00,30.7,25.3,30.10,WSW,253,0.0,0.0,80,0.00,,SKC,0.00,VWS V14.01,2013-11-08 01:45:00,
2013-11-07 19:50:00,30.5,25.1,30.10,WSW,253,0.0,0.0,80,0.00,,SKC,0.00,VWS V14.01,2013-11-08 01:50:00,
2013-11-07 19:55:00,30.4,25.0,30.10,WSW,253,0.0,0.0,80,0.00,,SKC,0.00,VWS V14.01,2013-11-08 01:55:00,
2013-11-07 20:00:00,30.3,24.9,30.10,WSW,253,0.0,0.0,80,0.00,,SKC,0.00,VWS V14.01,2013-11-08 02:00:00,
2013-11-07 20:05:00,30.3,25.2,30.10,WSW,253,0.0,0.0,81,0.00,,SKC,0.00,VWS V14.01,2013-11-08 02:05:00,
2013-11-07 20:10:00,30.2,25.4,30.10,WSW,253,0.0,0.0,82,0.00,,SKC,0.00,VWS V14.01,2013-11-08 02:10:00,
2013-11-07 20:15:00,30.1,25.0,30.10,WSW,253,0.0,0.0,81,0.00,,SKC,0.00,VWS V14.01,2013-11-08 02:15:00,
2013-11-07 20:20:00,30.1,24.7,30.10,WSW,253,0.0,2.0,80,0.00,,SKC,0.00,VWS V14.01,2013-11-08 02:20:00,
2013-11-07 20:25:00,30.2,24.8,30.10,WSW,253,0.0,2.0,80,0.00,,SKC,0.00,VWS V14.01,2013-11-08 02:25:00,
2013-11-07 20:30:00,30.3,24.9,30.10,WSW,253,0.0,2.0,80,0.00,,SKC,0.00,VWS V14.01,2013-11-08 02:30:00,
2013-11-07 20:35:00,30.3,24.6,30.10,WSW,253,0.0,0.0,79,0.00,,SKC,0.00,VWS V14.01,2013-11-08 02:35:00,
2013-11-07 20:40:00,30.4,24.7,30.10,WSW,253,0.0,0.0,79,0.00,,SKC,0.00,VWS V14.01,2013-11-08 02:40:00,
2013-11-07 20:45:00,30.3,24.6,30.10,WSW,253,0.0,2.0,79,0.00,,SKC,0.00,VWS V14.01,2013-11-08 02:45:00,
2013-11-07 20:50:00,30.6,25.2,30.10,WSW,253,0.0,4.0,80,0.00,,SKC,0.00,VWS V14.01,2013-11-08 02:50:00,
2013-11-07 20:55:00,30.7,25.6,30.10,WSW,253,0.0,4.0,81,0.00,,SKC,0.00,VWS V14.01,2013-11-08 02:55:00,
2013-11-07 21:00:00,30.7,25.6,30.10,WSW,253,1.0,4.0,81,0.00,,SKC,0.00,VWS V14.01,2013-11-08 03:00:00,
2013-11-07 21:06:00,30.6,25.5,30.10,WSW,253,0.0,0.0,81,0.00,,SKC,0.00,VWS V14.01,2013-11-08 03:06:00,
2013-11-07 21:11:00,30.4,25.3,30.10,WSW,253,0.0,0.0,81,0.00,,SKC,0.00,VWS V14.01,2013-11-08 03:11:00,
2013-11-07 21:16:00,30.2,25.1,30.10,WSW,253,0.0,0.0,81,0.00,,SKC,0.00,VWS V14.01,2013-11-08 03:16:00,
2013-11-07 21:21:00,30.1,25.3,30.10,WSW,253,0.0,0.0,82,0.00,,SKC,0.00,VWS V14.01,2013-11-08 03:21:00,
2013-11-07 21:26:00,29.8,25.0,30.10,WSW,253,0.0,1.0,82,0.00,,SKC,0.00,VWS V14.01,2013-11-08 03:26:00,
2013-11-07 21:30:00,29.7,25.2,30.10,WSW,253,0.0,1.0,83,0.00,,SKC,0.00,VWS V14.01,2013-11-08 03:30:00,
2013-11-07 21:31:00,29.7,25.2,30.10,WSW,253,0.0,1.0,83,0.00,,SKC,0.00,VWS V14.01,2013-11-08 03:31:00,
2013-11-07 21:36:00,29.7,25.5,30.10,WSW,253,0.0,4.0,84,0.00,,SKC,0.00,VWS V14.01,2013-11-08 03:36:00,
2013-11-07 21:41:00,29.7,25.5,30.10,WSW,253,0.0,5.0,84,0.00,,SKC,0.00,VWS V14.01,2013-11-08 03:41:00,
2013-11-07 21:46:00,29.7,25.8,30.10,WSW,253,1.0,5.0,85,0.00,,SKC,0.00,VWS V14.01,2013-11-08 03:46:00,
2013-11-07 21:51:00,29.7,25.8,30.10,WSW,253,0.0,5.0,85,0.00,,SKC,0.00,VWS V14.01,2013-11-08 03:51:00,
2013-11-07 21:56:00,29.7,25.8,30.10,WSW,253,5.0,5.0,85,0.00,,SKC,0.00,VWS V14.01,2013-11-08 03:56:00,
2013-11-07 22:00:00,29.7,26.0,30.10,WSW,253,0.0,5.0,86,0.00,,SKC,0.00,VWS V14.01,2013-11-08 04:00:00,
2013-11-07 22:01:00,29.7,26.0,30.10,WSW,253,0.0,5.0,86,0.00,,SKC,0.00,VWS V14.01,2013-11-08 04:01:00,
2013-11-07 22:06:00,29.5,25.8,30.10,WSW,253,0.0,5.0,86,0.00,,SKC,0.00,VWS V14.01,2013-11-08 04:06:00,
2013-11-07 22:11:00,29.3,25.6,30.10,WSW,253,0.0,5.0,86,0.00,,SKC,0.00,VWS V14.01,2013-11-08 04:11:00,
2013-11-07 22:16:00,29.2,25.5,30.10,WSW,253,0.0,5.0,86,0.00,,SKC,0.00,VWS V14.01,2013-11-08 04:16:00,
2013-11-07 22:21:00,29.0,25.6,30.10,WSW,253,0.0,5.0,87,0.00,,SKC,0.00,VWS V14.01,2013-11-08 04:21:00,
2013-11-07 22:26:00,28.8,25.4,30.10,WSW,253,0.0,5.0,87,0.00,,SKC,0.00,VWS V14.01,2013-11-08 04:26:00,
2013-11-07 22:30:00,28.8,26.0,30.10,WSW,253,0.0,5.0,89,0.00,,SKC,0.00,VWS V14.01,2013-11-08 04:30:00,
2013-11-07 22:31:00,28.8,26.0,30.10,WSW,253,0.0,5.0,89,0.00,,SKC,0.00,VWS V14.01,2013-11-08 04:31:00,
2013-11-07 22:36:00,28.5,25.7,30.10,WSW,253,0.0,0.0,89,0.00,,SKC,0.00,VWS V14.01,2013-11-08 04:36:00,
2013-11-07 22:41:00,28.3,25.5,30.10,WSW,253,0.0,0.0,89,0.00,,SKC,0.00,VWS V14.01,2013-11-08 04:41:00,
2013-11-07 22:46:00,28.1,25.3,30.10,WSW,253,0.0,0.0,89,0.00,,SKC,0.00,VWS V14.01,2013-11-08 04:46:00,
2013-11-07 22:51:00,27.8,25.0,30.10,WSW,253,0.0,0.0,89,0.00,,SKC,0.00,VWS V14.01,2013-11-08 04:51:00,
2013-11-07 22:56:00,27.7,25.2,30.10,WSW,253,0.0,0.0,90,0.00,,SKC,0.00,VWS V14.01,2013-11-08 04:56:00,
2013-11-07 23:00:00,27.7,25.2,30.10,WSW,253,0.0,4.0,90,0.00,,SKC,0.00,VWS V14.01,2013-11-08 05:00:00,
2013-11-07 23:01:00,27.7,25.2,30.10,WSW,253,0.0,4.0,90,0.00,,SKC,0.00,VWS V14.01,2013-11-08 05:01:00,
2013-11-07 23:02:00,27.7,25.2,30.09,WSW,253,0.0,0.0,90,0.00,,SKC,0.00,VWS V14.01,2013-11-08 05:02:00,
2013-11-07 23:03:00,27.7,25.2,30.09,WSW,253,0.0,0.0,90,0.00,,SKC,0.00,VWS V14.01,2013-11-08 05:03:00,
2013-11-07 23:04:00,27.7,25.2,30.09,WSW,253,0.0,0.0,90,0.00,,SKC,0.00,VWS V14.01,2013-11-08 05:04:00,
2013-11-07 23:07:00,27.8,25.2,30.09,WSW,253,0.0,1.0,90,0.00,,SKC,0.00,VWS V14.01,2013-11-08 05:07:00,
2013-11-07 23:08:00,27.8,25.2,30.09,WSW,253,0.0,1.0,90,0.00,,SKC,0.00,VWS V14.01,2013-11-08 05:08:00,
2013-11-07 23:13:00,27.9,25.4,30.09,WSW,253,2.0,3.0,90,0.00,,SKC,0.00,VWS V14.01,2013-11-08 05:13:00,
2013-11-07 23:18:00,28.0,25.5,30.09,WSW,253,0.0,5.0,90,0.00,,SKC,0.00,VWS V14.01,2013-11-08 05:18:00,
2013-11-07 23:24:00,28.2,25.9,30.09,WSW,252,0.0,6.0,91,0.00,,SKC,0.00,VWS V14.01,2013-11-08 05:24:00,
2013-11-07 23:29:00,28.2,25.9,30.09,WSW,252,0.0,6.0,91,0.00,,SKC,0.00,VWS V14.01,2013-11-08 05:29:00,
2013-11-07 23:30:00,28.2,25.9,30.09,WSW,252,0.0,6.0,91,0.00,,SKC,0.00,VWS V14.01,2013-11-08 05:30:00,
2013-11-07 23:34:00,28.2,25.9,30.09,WSW,252,2.0,4.0,91,0.00,,SKC,0.00,VWS V14.01,2013-11-08 05:34:00,
2013-11-07 23:39:00,28.2,25.9,30.09,WSW,252,0.0,4.0,91,0.00,,SKC,0.00,VWS V14.01,2013-11-08 05:39:00,
2013-11-07 23:44:00,28.1,25.8,30.09,WSW,252,0.0,4.0,91,0.00,,SKC,0.00,VWS V14.01,2013-11-08 05:44:00,
2013-11-07 23:49:00,28.0,25.7,30.09,WSW,252,0.0,4.0,91,0.00,,SKC,0.00,VWS V14.01,2013-11-08 05:49:00,
2013-11-07 23:54:00,28.0,25.7,30.09,WSW,252,0.0,4.0,91,0.00,,SKC,0.00,VWS V14.01,2013-11-08 05:54:00,
2013-11-07 23:59:00,28.0,25.7,30.09,WSW,252,0.0,4.0,91,0.00,,SKC,0.00,VWS V14.01,2013-11-08 05:59:00,